Time;durP1;ratioP1;P1;durP2;ratioP2;P2;SDS_P1;SDS_P2;PMS_P1;PMS_P2;Temp;Humidity;BMP_temperature;BMP_pressure;BME280_temperature;BME280_humidity;BME280_pressure;Samples;Min_cycle;Max_cycle;Signal;HPM_P1;HPM_P2
2023/07/26 00:01:41;;;;;;;10.15;4.65;;;19.60;91.00;;;;;;5082107;28;20103;-80
2023/07/26 00:04:07;;;;;;;8.98;4.88;;;19.60;91.00;;;;;;5078054;28;20115;-80
2023/07/26 00:06:32;;;;;;;8.18;5.25;;;19.60;91.00;;;;;;5075522;28;20111;-80
2023/07/26 00:08:58;;;;;;;7.72;5.43;;;19.60;91.00;;;;;;5079568;28;20032;-80
2023/07/26 00:11:24;;;;;;;10.45;5.63;;;19.60;91.00;;;;;;5083047;28;20040;-80
2023/07/26 00:13:49;;;;;;;11.55;5.78;;;19.60;91.00;;;;;;5079605;28;20032;-80
2023/07/26 00:16:15;;;;;;;10.13;4.85;;;19.60;91.00;;;;;;5083883;28;20038;-80
2023/07/26 00:18:40;;;;;;;13.90;5.90;;;19.60;91.00;;;;;;5078293;28;21354;-81
2023/07/26 00:21:07;;;;;;;8.85;5.18;;;19.60;91.00;;;;;;5077632;28;20028;-80
2023/07/26 00:23:32;;;;;;;7.43;5.32;;;19.60;91.00;;;;;;5076050;28;20018;-80
2023/07/26 00:25:58;;;;;;;6.78;5.18;;;19.60;91.00;;;;;;5086733;28;20024;-80
2023/07/26 00:28:24;;;;;;;11.73;5.20;;;19.60;91.00;;;;;;5085189;28;20028;-80
2023/07/26 00:30:49;;;;;;;13.70;5.60;;;19.60;91.00;;;;;;5082131;28;20122;-80
2023/07/26 00:33:15;;;;;;;8.93;5.93;;;19.60;91.00;;;;;;5079240;28;20028;-80
2023/07/26 00:35:42;;;;;;;11.77;5.53;;;19.60;91.00;;;;;;5078083;28;20024;-80
2023/07/26 00:38:08;;;;;;;8.80;5.78;;;19.50;91.00;;;;;;5076896;28;20102;-79
2023/07/26 00:40:35;;;;;;;8.13;5.25;;;19.50;91.30;;;;;;5078590;28;20127;-80
2023/07/26 00:43:01;;;;;;;9.98;4.88;;;19.50;90.90;;;;;;5085030;28;20029;-80
2023/07/26 00:45:29;;;;;;;8.65;5.15;;;19.60;91.00;;;;;;5080867;28;20590;-80
2023/07/26 00:47:55;;;;;;;10.13;5.35;;;19.50;90.90;;;;;;5081601;28;20031;-80
2023/07/26 00:50:21;;;;;;;11.48;5.53;;;19.50;90.90;;;;;;5080427;28;20048;-80
2023/07/26 00:52:47;;;;;;;10.27;5.90;;;19.50;90.90;;;;;;5075425;28;20074;-80
2023/07/26 00:55:13;;;;;;;13.88;5.80;;;19.50;90.90;;;;;;5078774;28;20224;-79
2023/07/26 00:57:40;;;;;;;12.52;5.60;;;19.50;90.80;;;;;;5076668;28;20473;-79
2023/07/26 01:00:07;;;;;;;9.02;5.63;;;19.50;90.80;;;;;;5088224;28;20056;-79
2023/07/26 01:02:33;;;;;;;8.23;5.57;;;19.60;90.80;;;;;;5082844;28;20020;-80
2023/07/26 01:04:59;;;;;;;13.43;5.28;;;19.50;90.80;;;;;;5085419;28;20526;-79
2023/07/26 01:07:31;;;;;;;7.47;5.35;;;19.50;90.80;;;;;;5083057;28;20063;-79
2023/07/26 01:10:13;;;;;;;11.75;6.20;;;19.50;90.80;;;;;;5076070;28;20029;-79
2023/07/26 01:12:50;;;;;;;9.07;5.85;;;19.50;90.80;;;;;;5074371;28;20037;-79
2023/07/26 01:15:16;;;;;;;10.32;6.03;;;19.60;90.80;;;;;;5079625;28;20024;-79
2023/07/26 01:17:45;;;;;;;14.07;5.65;;;19.50;90.80;;;;;;5088571;28;20027;-79
2023/07/26 01:20:12;;;;;;;12.40;5.65;;;19.50;90.70;;;;;;5080886;28;20477;-79
2023/07/26 01:22:37;;;;;;;10.55;6.28;;;19.50;90.80;;;;;;5080910;28;20047;-79
2023/07/26 01:25:03;;;;;;;6.93;5.40;;;19.50;90.80;;;;;;5079750;28;20467;-79
2023/07/26 01:27:29;;;;;;;9.35;5.85;;;19.50;90.80;;;;;;5078177;28;20381;-79
2023/07/26 01:29:56;;;;;;;9.63;5.22;;;19.50;90.70;;;;;;5092536;28;20027;-79
2023/07/26 01:32:25;;;;;;;7.78;5.15;;;19.50;90.70;;;;;;5084771;28;20032;-79
2023/07/26 01:34:51;;;;;;;9.38;5.68;;;19.50;90.70;;;;;;5082522;28;20599;-79
2023/07/26 01:37:18;;;;;;;8.80;5.75;;;19.50;90.70;;;;;;5084181;28;20112;-79
2023/07/26 01:39:44;;;;;;;8.90;5.70;;;19.50;90.70;;;;;;5081480;28;20369;-79
2023/07/26 01:42:10;;;;;;;12.88;5.95;;;19.50;90.70;;;;;;5079049;28;20035;-79
2023/07/26 01:44:36;;;;;;;10.73;5.88;;;19.50;90.70;;;;;;5087398;28;20020;-79
2023/07/26 01:47:02;;;;;;;11.07;5.53;;;19.50;90.70;;;;;;5086368;28;20028;-79
2023/07/26 01:49:28;;;;;;;9.35;5.15;;;19.50;90.70;;;;;;5085647;28;20392;-79
2023/07/26 01:51:54;;;;;;;9.02;4.90;;;19.50;90.70;;;;;;5082155;28;20028;-79
2023/07/26 01:54:20;;;;;;;9.68;4.97;;;19.50;90.70;;;;;;5081606;28;20033;-79
2023/07/26 01:56:45;;;;;;;7.13;4.85;;;19.50;90.70;;;;;;5081748;28;20046;-79
2023/07/26 01:59:11;;;;;;;9.85;5.90;;;19.50;90.70;;;;;;5082331;28;20057;-80
2023/07/26 02:01:37;;;;;;;9.15;4.90;;;19.50;90.60;;;;;;5089130;28;20619;-79
2023/07/26 02:04:02;;;;;;;15.23;5.32;;;19.50;90.60;;;;;;5086197;28;20035;-79
2023/07/26 02:06:28;;;;;;;8.95;5.40;;;19.50;90.60;;;;;;5090381;28;20051;-79
2023/07/26 02:08:53;;;;;;;10.02;5.50;;;19.50;90.60;;;;;;5085005;28;20036;-79
2023/07/26 02:11:19;;;;;;;13.05;5.72;;;19.50;90.60;;;;;;5082231;28;20040;-79
2023/07/26 02:13:44;;;;;;;10.70;5.72;;;19.50;90.60;;;;;;5085232;28;20016;-79
2023/07/26 02:16:10;;;;;;;9.90;5.97;;;19.50;90.60;;;;;;5087683;28;20029;-80
2023/07/26 02:18:36;;;;;;;8.27;5.10;;;19.50;90.50;;;;;;5088194;28;20601;-79
2023/07/26 02:21:01;;;;;;;8.65;5.28;;;19.50;90.50;;;;;;5087671;28;20021;-80
2023/07/26 02:23:27;;;;;;;8.27;5.72;;;19.50;90.50;;;;;;5086310;28;20085;-78
2023/07/26 02:25:52;;;;;;;12.65;5.10;;;19.50;90.50;;;;;;5081811;28;20016;-80
2023/07/26 02:28:18;;;;;;;7.65;4.97;;;19.50;90.50;;;;;;5086622;28;20470;-79
2023/07/26 02:30:43;;;;;;;9.13;5.03;;;19.50;90.40;;;;;;5086265;28;20507;-80
2023/07/26 02:33:09;;;;;;;7.15;5.15;;;19.40;90.40;;;;;;5079636;28;20029;-79
2023/07/26 02:35:35;;;;;;;8.35;5.50;;;19.50;90.40;;;;;;5084224;28;20024;-79
2023/07/26 02:38:00;;;;;;;8.77;5.30;;;19.50;90.40;;;;;;5079008;28;20059;-80
2023/07/26 02:40:26;;;;;;;10.80;5.35;;;19.50;90.40;;;;;;5087156;28;20028;-79
2023/07/26 02:42:51;;;;;;;11.48;5.30;;;19.50;90.40;;;;;;5083535;28;20110;-80
2023/07/26 02:45:17;;;;;;;7.03;5.22;;;19.50;90.40;;;;;;5085045;28;20036;-79
2023/07/26 02:47:42;;;;;;;7.93;5.45;;;19.50;90.40;;;;;;5085874;28;20024;-79
2023/07/26 02:50:11;;;;;;;9.45;5.18;;;19.40;90.40;;;;;;5079558;28;20020;-79
2023/07/26 02:52:37;;;;;;;13.57;6.40;;;19.50;90.40;;;;;;5086452;28;20031;-79
2023/07/26 02:55:03;;;;;;;8.10;5.47;;;19.40;90.40;;;;;;5087099;28;20020;-79
2023/07/26 02:57:28;;;;;;;8.55;5.30;;;19.40;90.50;;;;;;5082350;28;20477;-79
2023/07/26 02:59:54;;;;;;;11.60;5.97;;;19.50;90.40;;;;;;5082116;28;20393;-80
2023/07/26 03:02:20;;;;;;;8.80;5.15;;;19.50;90.40;;;;;;5081656;28;20020;-80
2023/07/26 03:04:45;;;;;;;7.82;5.05;;;19.40;90.30;;;;;;5079478;28;20016;-80
2023/07/26 03:07:11;;;;;;;9.25;5.28;;;19.40;90.30;;;;;;5085925;28;20028;-80
2023/07/26 03:09:37;;;;;;;12.80;5.80;;;19.50;90.40;;;;;;5088559;28;20020;-79
2023/07/26 03:12:02;;;;;;;8.95;5.00;;;19.40;90.30;;;;;;5087519;28;20385;-80
2023/07/26 03:14:28;;;;;;;7.38;5.13;;;19.50;90.30;;;;;;5081749;28;20013;-79
2023/07/26 03:16:54;;;;;;;7.57;4.95;;;19.40;90.30;;;;;;5082501;28;20477;-79
2023/07/26 03:19:19;;;;;;;12.15;5.00;;;19.40;90.30;;;;;;5081254;28;20056;-80
2023/07/26 03:21:45;;;;;;;9.57;5.40;;;19.40;90.30;;;;;;5079705;28;20031;-79
2023/07/26 03:24:10;;;;;;;6.90;4.70;;;19.40;90.30;;;;;;5085943;28;20546;-79
2023/07/26 03:26:36;;;;;;;6.35;4.82;;;19.40;90.30;;;;;;5085738;28;20104;-79
2023/07/26 03:29:02;;;;;;;7.80;4.65;;;19.40;90.30;;;;;;5086042;28;20035;-79
2023/07/26 03:31:27;;;;;;;10.48;5.63;;;19.40;90.30;;;;;;5080435;28;20040;-79
2023/07/26 03:33:53;;;;;;;9.60;4.85;;;19.40;90.30;;;;;;5082588;28;20020;-79
2023/07/26 03:36:18;;;;;;;10.07;5.32;;;19.40;90.30;;;;;;5078076;28;20016;-79
2023/07/26 03:38:44;;;;;;;7.88;5.03;;;19.40;90.20;;;;;;5078907;28;20077;-79
2023/07/26 03:41:10;;;;;;;7.57;5.07;;;19.40;90.20;;;;;;5089630;28;20473;-80
2023/07/26 03:43:35;;;;;;;6.40;4.55;;;19.40;90.20;;;;;;5082710;28;20090;-79
2023/07/26 03:46:01;;;;;;;8.95;4.72;;;19.40;90.20;;;;;;5083518;28;20108;-79
2023/07/26 03:48:27;;;;;;;5.85;4.43;;;19.40;90.20;;;;;;5079802;28;20066;-79
2023/07/26 03:50:53;;;;;;;8.40;4.18;;;19.40;90.20;;;;;;5085261;28;20036;-80
2023/07/26 03:53:18;;;;;;;7.90;4.50;;;19.40;90.20;;;;;;5088622;28;20029;-80
2023/07/26 03:55:44;;;;;;;5.50;4.45;;;19.40;90.20;;;;;;5084790;28;20028;-80
2023/07/26 03:58:09;;;;;;;7.55;4.28;;;19.40;90.20;;;;;;5088572;28;20016;-78
2023/07/26 04:00:47;;;;;;;6.65;4.35;;;19.40;90.20;;;;;;5082813;28;20031;-79
2023/07/26 04:03:13;;;;;;;15.77;5.28;;;19.40;90.20;;;;;;5088675;28;20020;-79
2023/07/26 04:05:38;;;;;;;8.18;5.22;;;19.40;90.20;;;;;;5084268;28;20032;-80
2023/07/26 04:08:04;;;;;;;6.95;4.25;;;19.40;90.20;;;;;;5083690;28;20539;-80
2023/07/26 04:10:30;;;;;;;8.60;4.22;;;19.40;90.20;;;;;;5075720;28;20028;-77
2023/07/26 04:12:55;;;;;;;7.88;4.72;;;19.40;90.20;;;;;;5084733;28;20028;-80
2023/07/26 04:15:21;;;;;;;9.15;5.15;;;19.40;90.20;;;;;;5082100;28;20027;-80
2023/07/26 04:17:46;;;;;;;7.78;5.03;;;19.40;90.20;;;;;;5077505;28;20025;-80
2023/07/26 04:20:12;;;;;;;9.35;4.93;;;19.40;90.20;;;;;;5081020;28;20019;-80
2023/07/26 04:22:38;;;;;;;7.35;4.88;;;19.40;90.20;;;;;;5080713;28;20032;-79
2023/07/26 04:25:04;;;;;;;7.10;4.65;;;19.40;90.20;;;;;;5081074;28;20031;-80
2023/07/26 04:27:29;;;;;;;7.15;4.32;;;19.40;90.20;;;;;;5086684;28;20020;-80
2023/07/26 04:29:55;;;;;;;6.68;4.47;;;19.40;90.20;;;;;;5079583;28;20719;-79
2023/07/26 04:32:20;;;;;;;11.55;4.88;;;19.40;90.20;;;;;;5080170;28;20070;-79
2023/07/26 04:34:46;;;;;;;9.00;4.28;;;19.40;90.20;;;;;;5080746;28;20028;-80
2023/07/26 04:37:11;;;;;;;6.65;4.47;;;19.40;90.20;;;;;;5080606;28;20103;-80
2023/07/26 04:39:37;;;;;;;6.55;4.03;;;19.40;90.20;;;;;;5078752;28;20020;-80
2023/07/26 04:42:03;;;;;;;8.50;4.22;;;19.40;90.20;;;;;;5088214;28;20047;-79
2023/07/26 04:44:28;;;;;;;6.78;3.90;;;19.40;90.20;;;;;;5085496;28;20103;-80
2023/07/26 04:46:54;;;;;;;6.68;3.50;;;19.40;90.20;;;;;;5081140;28;20020;-82
2023/07/26 04:49:19;;;;;;;9.48;3.78;;;19.40;90.10;;;;;;5081499;28;20024;-79
2023/07/26 04:51:45;;;;;;;5.47;2.95;;;19.30;89.40;;;;;;5083800;28;20476;-78
2023/07/26 04:54:11;;;;;;;6.50;2.90;;;19.30;89.70;;;;;;5085504;28;20040;-79
2023/07/26 04:56:36;;;;;;;5.88;3.00;;;19.30;89.70;;;;;;5089534;28;20111;-79
2023/07/26 04:59:02;;;;;;;3.38;2.45;;;19.30;89.80;;;;;;5090186;28;20377;-79
2023/07/26 05:01:27;;;;;;;8.75;3.70;;;19.30;89.80;;;;;;5088203;28;20429;-79
2023/07/26 05:03:53;;;;;;;8.35;2.90;;;19.30;89.70;;;;;;5087651;28;20394;-79
2023/07/26 05:06:18;;;;;;;4.05;2.70;;;19.30;89.80;;;;;;5087096;28;20089;-79
2023/07/26 05:08:47;;;;;;;6.72;3.05;;;19.30;89.70;;;;;;5086942;28;20032;-79
2023/07/26 05:11:13;;;;;;;3.80;2.85;;;19.30;90.20;;;;;;5089092;28;20051;-78
2023/07/26 05:13:38;;;;;;;4.43;2.78;;;19.30;89.80;;;;;;5087511;28;20025;-79
2023/07/26 05:16:04;;;;;;;3.50;2.60;;;19.30;89.70;;;;;;5086749;28;20032;-79
2023/07/26 05:18:29;;;;;;;4.55;2.80;;;19.30;89.80;;;;;;5090661;28;20625;-79
2023/07/26 05:20:55;;;;;;;5.22;2.30;;;19.30;89.80;;;;;;5087363;28;20043;-79
2023/07/26 05:23:21;;;;;;;6.40;2.55;;;19.40;89.90;;;;;;5086672;28;20077;-79
2023/07/26 05:25:47;;;;;;;3.38;2.40;;;19.30;89.90;;;;;;5090425;28;20031;-80
2023/07/26 05:28:12;;;;;;;3.15;1.98;;;19.30;89.90;;;;;;5091088;28;20032;-79
2023/07/26 05:30:40;;;;;;;3.45;2.45;;;19.30;89.80;;;;;;5087841;28;20099;-79
2023/07/26 05:33:06;;;;;;;2.58;2.05;;;19.30;89.90;;;;;;5090503;28;20027;-79
2023/07/26 05:35:32;;;;;;;2.05;1.70;;;19.30;89.80;;;;;;5090590;28;20036;-79
2023/07/26 05:37:58;;;;;;;5.60;1.92;;;19.30;89.80;;;;;;5088683;28;20016;-79
2023/07/26 05:40:23;;;;;;;4.38;1.95;;;19.40;89.90;;;;;;5087028;28;20028;-79
2023/07/26 05:42:49;;;;;;;3.83;2.05;;;19.30;89.90;;;;;;5090620;28;20035;-80
2023/07/26 05:45:15;;;;;;;4.47;2.05;;;19.30;89.90;;;;;;5089401;28;20020;-79
2023/07/26 05:47:41;;;;;;;2.30;1.88;;;19.40;89.90;;;;;;5085615;28;20067;-79
2023/07/26 05:50:08;;;;;;;4.55;2.00;;;19.30;89.80;;;;;;5089429;28;20364;-79
2023/07/26 05:52:34;;;;;;;2.10;1.90;;;19.30;89.80;;;;;;5088976;28;20045;-80
2023/07/26 05:54:59;;;;;;;6.50;1.60;;;19.40;89.90;;;;;;5088146;28;20016;-79
2023/07/26 05:57:25;;;;;;;2.58;1.77;;;19.30;89.80;;;;;;5088057;28;20531;-79
2023/07/26 05:59:51;;;;;;;4.18;2.15;;;19.30;89.90;;;;;;5084775;28;20441;-78
2023/07/26 06:02:16;;;;;;;7.63;1.95;;;19.30;89.90;;;;;;5088292;28;20012;-79
2023/07/26 06:04:42;;;;;;;1.90;1.70;;;19.30;89.90;;;;;;5087459;28;20028;-79
2023/07/26 06:07:07;;;;;;;2.28;1.70;;;19.30;89.90;;;;;;5089973;28;20069;-79
2023/07/26 06:09:36;;;;;;;2.22;1.67;;;19.90;90.10;;;;;;5089227;28;20023;-79
2023/07/26 06:12:02;;;;;;;4.32;1.90;;;19.30;89.90;;;;;;5086032;28;20036;-79
2023/07/26 06:14:29;;;;;;;2.17;1.67;;;19.40;90.00;;;;;;5083907;28;20103;-79
2023/07/26 06:16:54;;;;;;;2.38;1.70;;;19.40;90.00;;;;;;5085179;28;20033;-80
2023/07/26 06:19:21;;;;;;;3.05;1.75;;;19.30;89.90;;;;;;5086317;28;20092;-80
2023/07/26 06:21:46;;;;;;;2.53;1.77;;;19.30;90.00;;;;;;5085195;28;20031;-79
2023/07/26 06:24:12;;;;;;;4.97;1.88;;;19.30;90.00;;;;;;5090129;28;20094;-80
2023/07/26 06:26:38;;;;;;;2.42;1.60;;;19.30;90.00;;;;;;5086627;28;20016;-80
2023/07/26 06:29:04;;;;;;;1.98;1.27;;;19.30;90.00;;;;;;5083393;28;20027;-79
2023/07/26 06:31:30;;;;;;;2.95;1.55;;;19.30;90.00;;;;;;5078504;28;20070;-80
2023/07/26 06:33:55;;;;;;;1.90;1.60;;;19.40;90.00;;;;;;5079786;28;20052;-80
2023/07/26 06:36:21;;;;;;;2.30;1.52;;;19.30;90.00;;;;;;5082767;28;20031;-80
2023/07/26 06:38:47;;;;;;;2.55;1.70;;;19.30;90.00;;;;;;5087788;28;20012;-80
2023/07/26 06:41:12;;;;;;;3.03;1.63;;;19.30;90.00;;;;;;5083786;28;20016;-80
2023/07/26 06:43:38;;;;;;;2.22;1.40;;;19.30;90.00;;;;;;5083645;28;20046;-79
2023/07/26 06:46:03;;;;;;;1.83;1.38;;;19.30;90.00;;;;;;5080108;28;20016;-79
2023/07/26 06:48:29;;;;;;;1.55;1.40;;;19.30;90.00;;;;;;5077782;28;20016;-80
2023/07/26 06:50:54;;;;;;;6.00;1.85;;;19.30;90.00;;;;;;5078396;28;20098;-80
2023/07/26 06:53:20;;;;;;;4.93;1.92;;;19.40;90.10;;;;;;5084551;28;20024;-79
2023/07/26 06:55:46;;;;;;;3.70;1.80;;;19.30;90.00;;;;;;5083480;28;20058;-80
2023/07/26 06:58:11;;;;;;;5.32;1.50;;;19.30;90.00;;;;;;5080971;28;20021;-80
2023/07/26 07:00:37;;;;;;;2.92;1.77;;;19.30;90.40;;;;;;5080709;28;20034;-79
2023/07/26 07:03:03;;;;;;;4.22;1.95;;;19.30;90.00;;;;;;5077450;28;20098;-80
2023/07/26 07:05:33;;;;;;;2.45;1.55;;;19.30;90.00;;;;;;5073634;28;20503;-80
2023/07/26 07:07:58;;;;;;;1.98;1.67;;;19.40;90.10;;;;;;5080166;28;20434;-79
2023/07/26 07:10:24;;;;;;;3.30;1.67;;;19.30;90.10;;;;;;5089519;28;20124;-79
2023/07/26 07:12:49;;;;;;;9.50;1.52;;;19.30;90.10;;;;;;5085844;28;20436;-80
2023/07/26 07:15:15;;;;;;;5.38;2.00;;;19.30;90.10;;;;;;5082389;28;20024;-80
2023/07/26 07:17:41;;;;;;;5.90;1.83;;;19.30;90.10;;;;;;5079990;28;20699;-79
2023/07/26 07:20:08;;;;;;;6.68;2.80;;;19.30;90.10;;;;;;5075407;28;20017;-78
2023/07/26 07:22:34;;;;;;;5.90;2.00;;;19.30;90.40;;;;;;5082926;28;20034;-79
2023/07/26 07:25:00;;;;;;;3.28;1.85;;;19.30;90.10;;;;;;5091789;28;20032;-78
2023/07/26 07:27:25;;;;;;;5.75;1.90;;;19.30;90.10;;;;;;5083827;28;20070;-79
2023/07/26 07:29:51;;;;;;;2.53;1.77;;;19.30;90.10;;;;;;5085830;28;20028;-78
2023/07/26 07:32:17;;;;;;;2.58;1.88;;;19.40;90.10;;;;;;5084836;28;20039;-79
2023/07/26 07:34:43;;;;;;;5.68;1.80;;;19.30;90.10;;;;;;5083414;28;20056;-79
2023/07/26 07:37:08;;;;;;;2.50;2.25;;;19.30;90.00;;;;;;5087507;28;20085;-79
2023/07/26 07:39:35;;;;;;;5.10;2.05;;;19.30;90.00;;;;;;5087345;28;20032;-79
2023/07/26 07:42:00;;;;;;;3.90;2.13;;;19.30;90.00;;;;;;5084178;28;20036;-79
2023/07/26 07:44:27;;;;;;;3.90;2.03;;;19.30;90.00;;;;;;5087872;28;20093;-78
2023/07/26 07:46:53;;;;;;;5.45;2.03;;;19.30;90.00;;;;;;5083030;28;20028;-79
2023/07/26 07:49:19;;;;;;;10.57;2.05;;;19.30;90.40;;;;;;5080727;28;20038;-78
2023/07/26 07:51:44;;;;;;;4.82;2.33;;;19.30;90.40;;;;;;5078835;28;20036;-79
2023/07/26 07:54:10;;;;;;;4.93;2.03;;;19.30;90.00;;;;;;5088304;28;20020;-79
2023/07/26 07:56:35;;;;;;;6.65;2.45;;;19.30;90.10;;;;;;5086386;28;20020;-79
2023/07/26 07:59:01;;;;;;;4.10;2.05;;;19.40;90.10;;;;;;5087785;28;20027;-78
2023/07/26 08:01:27;;;;;;;3.22;2.10;;;19.30;90.00;;;;;;5085512;28;20024;-78
2023/07/26 08:03:52;;;;;;;6.57;2.15;;;19.40;90.10;;;;;;5081968;28;20108;-79
2023/07/26 08:06:18;;;;;;;3.85;2.10;;;19.40;90.10;;;;;;5082511;28;20032;-79
2023/07/26 08:08:43;;;;;;;3.13;2.15;;;19.40;90.10;;;;;;5086220;28;20032;-79
2023/07/26 08:11:09;;;;;;;3.75;2.00;;;19.40;90.40;;;;;;5083199;28;20536;-79
2023/07/26 08:13:35;;;;;;;5.28;2.38;;;19.40;90.00;;;;;;5079899;28;20034;-79
2023/07/26 08:16:01;;;;;;;7.40;2.13;;;19.40;90.10;;;;;;5085765;28;20031;-79
2023/07/26 08:18:26;;;;;;;4.03;2.20;;;19.40;90.10;;;;;;5083705;28;20019;-78
2023/07/26 08:20:52;;;;;;;2.75;1.80;;;19.40;90.10;;;;;;5081127;28;20024;-79
2023/07/26 08:23:18;;;;;;;3.70;1.92;;;19.40;90.20;;;;;;5084837;28;20037;-79
2023/07/26 08:25:43;;;;;;;5.20;2.35;;;19.40;90.20;;;;;;5084983;28;20027;-78
2023/07/26 08:28:09;;;;;;;2.50;2.00;;;19.40;90.20;;;;;;5081457;28;20027;-79
2023/07/26 08:30:35;;;;;;;3.40;1.98;;;19.40;90.20;;;;;;5082221;28;20030;-79
2023/07/26 08:33:00;;;;;;;3.60;2.17;;;19.40;90.20;;;;;;5086280;28;20026;-79
2023/07/26 08:35:26;;;;;;;6.88;2.42;;;19.40;90.20;;;;;;5083644;28;20055;-79
2023/07/26 08:37:52;;;;;;;4.05;2.00;;;19.40;90.20;;;;;;5081793;28;20464;-78
2023/07/26 08:40:18;;;;;;;5.75;2.22;;;19.40;90.20;;;;;;5088045;28;20024;-79
2023/07/26 08:42:44;;;;;;;10.00;2.53;;;19.40;90.20;;;;;;5080624;28;20036;-79
2023/07/26 08:45:10;;;;;;;6.00;2.20;;;19.40;90.20;;;;;;5081121;28;20028;-79
2023/07/26 08:47:36;;;;;;;5.13;1.80;;;19.40;90.20;;;;;;5083839;28;20024;-79
2023/07/26 08:50:04;;;;;;;6.68;2.30;;;19.40;90.30;;;;;;5083350;28;20088;-79
2023/07/26 08:52:30;;;;;;;5.03;2.03;;;19.40;90.20;;;;;;5074421;28;20067;-79
2023/07/26 08:54:56;;;;;;;15.98;2.05;;;19.40;90.30;;;;;;5082373;28;20519;-77
2023/07/26 08:57:24;;;;;;;4.28;1.70;;;19.40;90.20;;;;;;5081761;28;20020;-79
2023/07/26 08:59:50;;;;;;;3.90;1.90;;;19.40;90.20;;;;;;5079517;28;20032;-79
2023/07/26 09:02:17;;;;;;;2.38;1.85;;;19.40;90.20;;;;;;5075456;28;20032;-77
2023/07/26 09:04:45;;;;;;;4.45;2.08;;;19.40;90.30;;;;;;5081942;28;20032;-79
2023/07/26 09:07:12;;;;;;;5.15;1.88;;;19.40;90.30;;;;;;5084118;28;20385;-79
2023/07/26 09:09:38;;;;;;;2.20;1.75;;;19.40;90.20;;;;;;5084697;28;20028;-78
2023/07/26 09:12:04;;;;;;;3.42;1.63;;;19.40;90.20;;;;;;5083413;28;20040;-79
2023/07/26 09:14:31;;;;;;;8.00;1.60;;;19.40;90.30;;;;;;5079386;28;20024;-79
2023/07/26 09:16:59;;;;;;;6.60;1.80;;;19.40;90.30;;;;;;5078332;28;20032;-78
2023/07/26 09:19:32;;;;;;;4.90;1.70;;;19.40;90.20;;;;;;5076783;28;20072;-79
2023/07/26 09:21:59;;;;;;;3.03;1.58;;;19.40;90.20;;;;;;5084607;28;20453;-78
2023/07/26 09:24:30;;;;;;;4.50;1.73;;;19.40;90.20;;;;;;5089043;28;20080;-77
2023/07/26 09:27:06;;;;;;;5.35;2.03;;;19.40;90.10;;;;;;5076502;28;20081;-79
2023/07/26 09:29:32;;;;;;;4.85;1.75;;;19.40;90.10;;;;;;5080695;28;20027;-79
2023/07/26 09:31:58;;;;;;;3.47;1.70;;;19.40;90.10;;;;;;5078315;28;20043;-77
2023/07/26 09:34:24;;;;;;;2.97;1.58;;;19.40;90.20;;;;;;5073060;28;20154;-79
2023/07/26 09:36:51;;;;;;;5.55;1.73;;;19.40;90.20;;;;;;5086379;28;20107;-79
2023/07/26 09:39:25;;;;;;;2.55;1.90;;;19.40;90.20;;;;;;5096184;28;20024;-79
2023/07/26 09:42:03;;;;;;;4.15;1.75;;;19.40;90.20;;;;;;5087083;28;20111;-79
2023/07/26 09:44:28;;;;;;;2.92;1.73;;;19.40;90.10;;;;;;5080511;28;20024;-79
2023/07/26 09:46:56;;;;;;;3.15;2.00;;;19.40;90.10;;;;;;5080316;28;20016;-79
2023/07/26 09:49:24;;;;;;;3.33;1.83;;;19.40;90.10;;;;;;5078033;28;20024;-79
2023/07/26 09:51:54;;;;;;;4.88;1.65;;;19.40;90.20;;;;;;5083480;28;20033;-79
2023/07/26 09:54:27;;;;;;;3.23;1.90;;;19.40;90.10;;;;;;5089621;28;20029;-78
2023/07/26 09:56:55;;;;;;;2.47;1.48;;;19.40;90.10;;;;;;5086994;28;20055;-79
2023/07/26 09:59:23;;;;;;;3.45;1.67;;;19.40;90.10;;;;;;5085546;28;20051;-78
2023/07/26 10:01:50;;;;;;;1.83;1.55;;;19.40;90.10;;;;;;5082921;28;20107;-79
2023/07/26 10:04:21;;;;;;;5.60;2.03;;;19.40;90.10;;;;;;5078295;28;20372;-79
2023/07/26 10:06:49;;;;;;;8.50;1.77;;;19.40;90.10;;;;;;5079685;28;20067;-79
2023/07/26 10:09:15;;;;;;;2.42;1.58;;;19.40;90.10;;;;;;5084020;28;20512;-79
2023/07/26 10:11:42;;;;;;;2.58;1.30;;;19.40;90.10;;;;;;5087794;28;20046;-78
2023/07/26 10:14:14;;;;;;;4.03;1.40;;;19.30;90.00;;;;;;5086446;28;20024;-79
2023/07/26 10:16:40;;;;;;;3.20;1.52;;;19.40;90.10;;;;;;5086683;28;20089;-79
2023/07/26 10:19:07;;;;;;;1.63;1.50;;;19.30;90.00;;;;;;5083217;28;20016;-78
2023/07/26 10:21:36;;;;;;;4.47;1.30;;;19.30;90.10;;;;;;5081824;28;20056;-77
2023/07/26 10:24:04;;;;;;;3.15;1.23;;;19.30;90.00;;;;;;5087461;28;20024;-79
2023/07/26 10:26:32;;;;;;;1.55;1.10;;;19.40;90.10;;;;;;5090965;28;20052;-79
2023/07/26 10:28:59;;;;;;;3.20;1.05;;;19.30;90.00;;;;;;5084166;28;20024;-78
2023/07/26 10:31:34;;;;;;;8.23;1.45;;;19.30;90.00;;;;;;5098883;28;20039;-79
2023/07/26 10:34:00;;;;;;;1.30;1.02;;;19.30;90.00;;;;;;5086185;28;20024;-79
2023/07/26 10:36:33;;;;;;;5.10;1.00;;;19.40;90.00;;;;;;5080458;28;20042;-78
2023/07/26 10:39:11;;;;;;;2.40;1.10;;;19.40;90.00;;;;;;5084871;28;20035;-79
2023/07/26 10:41:47;;;;;;;2.35;1.10;;;19.40;89.90;;;;;;5085422;28;20039;-80
2023/07/26 10:44:12;;;;;;;1.13;0.88;;;19.40;90.00;;;;;;5092778;28;20034;-80
2023/07/26 10:47:07;;;;;;;3.50;1.23;;;19.40;89.90;;;;;;5086295;28;20024;-79
2023/07/26 10:49:33;;;;;;;0.95;0.90;;;19.40;89.90;;;;;;5084404;28;20033;-79
2023/07/26 10:52:02;;;;;;;1.02;0.90;;;19.40;89.90;;;;;;5082407;28;20037;-79
2023/07/26 10:54:49;;;;;;;1.00;0.88;;;19.40;90.00;;;;;;5080541;28;20032;-79
2023/07/26 10:57:20;;;;;;;1.40;1.00;;;19.40;89.90;;;;;;5079372;28;20118;-79
2023/07/26 11:00:01;;;;;;;1.40;1.00;;;19.40;89.90;;;;;;5080449;28;20059;-79
2023/07/26 11:02:46;;;;;;;1.50;0.90;;;19.30;89.80;;;;;;5081475;28;20504;-79
2023/07/26 11:05:22;;;;;;;0.73;0.73;;;19.30;89.70;;;;;;5090428;28;20031;-79
2023/07/26 11:08:05;;;;;;;0.75;0.75;;;19.40;89.80;;;;;;5087319;28;20049;-79
2023/07/26 11:10:36;;;;;;;1.13;0.70;;;19.40;89.70;;;;;;5091054;28;20031;-79
2023/07/26 11:13:18;;;;;;;0.80;0.80;;;19.40;89.70;;;;;;5087866;28;20028;-79
2023/07/26 11:15:45;;;;;;;2.28;0.90;;;19.40;89.80;;;;;;5085761;28;20059;-79
2023/07/26 11:18:13;;;;;;;1.65;0.90;;;19.40;89.70;;;;;;5087020;28;20476;-78
2023/07/26 11:20:44;;;;;;;1.05;0.70;;;19.30;89.60;;;;;;5086678;28;20102;-79
2023/07/26 11:23:28;;;;;;;3.70;0.80;;;19.40;89.70;;;;;;5086752;28;20059;-79
2023/07/26 11:25:59;;;;;;;1.67;0.85;;;19.30;89.50;;;;;;5086989;28;20035;-80
2023/07/26 11:28:29;;;;;;;2.42;0.88;;;19.40;89.60;;;;;;5083659;28;20024;-79
2023/07/26 11:30:56;;;;;;;1.63;0.73;;;19.40;89.60;;;;;;5085908;28;20044;-79
2023/07/26 11:33:33;;;;;;;1.15;0.82;;;19.40;89.70;;;;;;5085692;28;20043;-78
2023/07/26 11:36:01;;;;;;;0.80;0.80;;;19.50;89.70;;;;;;5085636;28;20036;-78
2023/07/26 11:38:27;;;;;;;0.65;0.65;;;19.40;89.70;;;;;;5085865;28;20044;-79
2023/07/26 11:40:56;;;;;;;1.30;0.60;;;19.40;89.70;;;;;;5084627;28;20028;-78
2023/07/26 11:43:25;;;;;;;1.00;0.90;;;19.40;89.60;;;;;;5079593;28;20445;-79
2023/07/26 11:45:51;;;;;;;2.00;0.90;;;19.40;89.70;;;;;;5082676;28;20060;-80
2023/07/26 11:48:18;;;;;;;1.35;1.05;;;19.40;89.70;;;;;;5084120;28;20119;-79
2023/07/26 11:50:44;;;;;;;2.42;0.80;;;19.40;89.70;;;;;;5086088;28;20036;-80
2023/07/26 11:53:12;;;;;;;1.33;1.10;;;19.40;89.80;;;;;;5086093;28;20082;-80
2023/07/26 11:55:39;;;;;;;3.15;0.95;;;19.40;89.80;;;;;;5086053;28;20098;-79
2023/07/26 11:58:08;;;;;;;1.65;1.20;;;19.40;89.80;;;;;;5080457;28;20094;-79
2023/07/26 12:00:40;;;;;;;5.68;1.35;;;19.40;89.90;;;;;;5081254;28;20032;-80
2023/07/26 12:03:07;;;;;;;1.83;0.80;;;19.40;89.80;;;;;;5084545;28;20059;-79
2023/07/26 12:05:33;;;;;;;1.40;1.02;;;19.40;89.70;;;;;;5085858;28;20078;-79
2023/07/26 12:08:01;;;;;;;1.38;1.10;;;19.40;89.70;;;;;;5084007;28;20107;-78
2023/07/26 12:10:33;;;;;;;1.05;0.80;;;19.40;89.60;;;;;;5087465;28;20116;-79
2023/07/26 12:12:59;;;;;;;4.38;0.90;;;19.40;89.50;;;;;;5085028;28;20050;-79
2023/07/26 12:15:26;;;;;;;2.75;1.00;;;19.40;89.50;;;;;;5079662;28;20029;-79
2023/07/26 12:18:00;;;;;;;1.95;1.20;;;19.40;89.50;;;;;;5078612;28;20108;-79
2023/07/26 12:20:26;;;;;;;0.70;0.70;;;19.40;89.50;;;;;;5084026;28;20491;-80
2023/07/26 12:22:54;;;;;;;0.88;0.80;;;19.40;89.50;;;;;;5076099;28;20023;-79
2023/07/26 12:25:21;;;;;;;0.80;0.80;;;19.40;89.50;;;;;;5084692;28;20062;-79
2023/07/26 12:27:48;;;;;;;1.35;0.90;;;19.40;89.50;;;;;;5081021;28;20081;-79
2023/07/26 12:30:17;;;;;;;1.20;1.00;;;19.40;89.50;;;;;;5076896;28;20087;-79
2023/07/26 12:32:43;;;;;;;2.05;1.08;;;19.40;89.50;;;;;;5073329;28;20074;-79
2023/07/26 12:35:22;;;;;;;1.88;0.88;;;19.40;89.50;;;;;;5079561;28;20470;-79
2023/07/26 12:37:49;;;;;;;1.03;0.93;;;19.40;89.50;;;;;;5075193;28;20670;-79
2023/07/26 12:40:17;;;;;;;3.72;1.00;;;19.40;89.50;;;;;;5081163;28;20038;-79
2023/07/26 12:42:43;;;;;;;1.17;0.98;;;19.40;89.50;;;;;;5079622;28;20020;-79
2023/07/26 12:45:08;;;;;;;1.67;0.98;;;19.40;89.50;;;;;;5081115;28;20100;-79